EJA853 KOKC-KHOU
Flight info
| Callsign | EJA853 |
|---|---|
| Flight time | N/A |
| Altitude | 45000 |
| Route | MUDDE3 OLFRD CVE ELLVR KIDDZ5 |
| Aircraft | C700/M-SBDGHM1RWXY/LB2 |
Departure
| Time | 2026-04-30 22:12 |
|---|---|
| Airport | OKC Will Rogers World Airport (KOKC) |
Arrival
| Time | N/A |
|---|---|
| Airport | William P. Hobby Airport (KHOU) |
| Time | Latitude | Longitude | Altitude | Speed | Heading |
|---|---|---|---|---|---|
| 2026-04-30 21:58 | 35.39590 | -97.58574 | 1283 ft | 0 kts | 1° |
| 2026-04-30 22:06 | 35.39607 | -97.58574 | 1285 ft | 9 kts | 2° |
| 2026-04-30 22:06 | 35.39720 | -97.58663 | 1287 ft | 11 kts | 270° |
| 2026-04-30 22:06 | 35.39694 | -97.58728 | 1285 ft | 10 kts | 160° |
| 2026-04-30 22:07 | 35.39622 | -97.58727 | 1286 ft | 12 kts | 179° |
| 2026-04-30 22:07 | 35.39515 | -97.58729 | 1287 ft | 18 kts | 179° |
| 2026-04-30 22:07 | 35.39384 | -97.58726 | 1287 ft | 19 kts | 181° |
| 2026-04-30 22:07 | 35.39252 | -97.58727 | 1290 ft | 18 kts | 180° |
| 2026-04-30 22:08 | 35.39130 | -97.58729 | 1292 ft | 17 kts | 181° |
| 2026-04-30 22:08 | 35.39004 | -97.58725 | 1291 ft | 19 kts | 180° |
| 2026-04-30 22:08 | 35.38872 | -97.58727 | 1292 ft | 19 kts | 179° |
| 2026-04-30 22:08 | 35.38739 | -97.58726 | 1292 ft | 20 kts | 181° |
| 2026-04-30 22:09 | 35.38591 | -97.58726 | 1288 ft | 22 kts | 179° |
| 2026-04-30 22:09 | 35.38437 | -97.58724 | 1286 ft | 15 kts | 173° |
| 2026-04-30 22:09 | 35.38335 | -97.58677 | 1284 ft | 17 kts | 150° |
| 2026-04-30 22:09 | 35.38222 | -97.58625 | 1284 ft | 18 kts | 177° |
| 2026-04-30 22:10 | 35.38096 | -97.58624 | 1284 ft | 19 kts | 180° |
| 2026-04-30 22:10 | 35.37965 | -97.58628 | 1284 ft | 19 kts | 180° |
| 2026-04-30 22:10 | 35.37854 | -97.58704 | 1287 ft | 19 kts | 236° |
| 2026-04-30 22:10 | 35.37835 | -97.58781 | 1287 ft | 0 kts | 267° |
| 2026-04-30 22:11 | 35.37835 | -97.58810 | 1286 ft | 13 kts | 270° |
| 2026-04-30 22:11 | 35.37864 | -97.58891 | 1286 ft | 10 kts | 2° |
| 2026-04-30 22:12 | 35.38004 | -97.58891 | 1287 ft | 57 kts | 359° |
| 2026-04-30 22:12 | 35.38735 | -97.58891 | 1308 ft | 151 kts | 5° |
| 2026-04-30 22:12 | 35.39980 | -97.58889 | 1939 ft | 206 kts | 2° |
| 2026-04-30 22:12 | 35.41511 | -97.58977 | 3212 ft | 231 kts | 358° |
| 2026-04-30 22:13 | 35.43143 | -97.59416 | 4415 ft | 251 kts | 339° |
| 2026-04-30 22:13 | 35.44649 | -97.60791 | 5157 ft | 284 kts | 318° |
| 2026-04-30 22:13 | 35.46010 | -97.62550 | 5261 ft | 281 kts | 316° |
| 2026-04-30 22:13 | 35.47292 | -97.64318 | 5176 ft | 274 kts | 314° |
| 2026-04-30 22:14 | 35.48181 | -97.66372 | 5097 ft | 285 kts | 283° |
| 2026-04-30 22:14 | 35.47849 | -97.68826 | 6513 ft | 302 kts | 243° |
| 2026-04-30 22:14 | 35.46469 | -97.70741 | 8378 ft | 301 kts | 211° |
| 2026-04-30 22:14 | 35.44523 | -97.71527 | 10389 ft | 297 kts | 184° |
| 2026-04-30 22:15 | 35.42460 | -97.71107 | 12055 ft | 310 kts | 166° |
| 2026-04-30 22:15 | 35.40384 | -97.70110 | 13345 ft | 328 kts | 161° |
| 2026-04-30 22:15 | 35.38253 | -97.69052 | 14584 ft | 339 kts | 166° |
| 2026-04-30 22:15 | 35.35982 | -97.68238 | 15878 ft | 342 kts | 173° |
| 2026-04-30 22:16 | 35.33626 | -97.67627 | 17168 ft | 350 kts | 175° |
| 2026-04-30 22:16 | 35.31220 | -97.66925 | 18408 ft | 361 kts | 172° |
| 2026-04-30 22:17 | 35.23742 | -97.64453 | 21678 ft | 379 kts | 176° |
| 2026-04-30 22:17 | 35.21159 | -97.63659 | 22767 ft | 385 kts | 177° |
| 2026-04-30 22:17 | 35.15883 | -97.61955 | 24656 ft | 398 kts | 178° |
| 2026-04-30 22:18 | 35.13189 | -97.61101 | 25511 ft | 403 kts | 178° |
| 2026-04-30 22:18 | 35.07675 | -97.59359 | 27137 ft | 415 kts | 178° |
| 2026-04-30 22:19 | 35.02031 | -97.57561 | 28705 ft | 428 kts | 178° |
| 2026-04-30 22:19 | 34.99140 | -97.56648 | 29436 ft | 434 kts | 178° |
| 2026-04-30 22:19 | 34.93195 | -97.54653 | 30716 ft | 454 kts | 172° |
| 2026-04-30 22:20 | 34.90236 | -97.53141 | 31308 ft | 465 kts | 168° |
| 2026-04-30 22:20 | 34.84260 | -97.49957 | 32331 ft | 472 kts | 169° |
| 2026-04-30 22:20 | 34.81228 | -97.48372 | 32798 ft | 476 kts | 169° |
| 2026-04-30 22:21 | 34.78178 | -97.46755 | 33279 ft | 479 kts | 169° |
| 2026-04-30 22:21 | 34.75130 | -97.45127 | 33902 ft | 477 kts | 169° |
| 2026-04-30 22:21 | 34.72082 | -97.43591 | 34434 ft | 467 kts | 175° |
| 2026-04-30 22:21 | 34.70042 | -97.42872 | 34763 ft | 455 kts | 181° |
| 2026-04-30 22:22 | 34.66972 | -97.42136 | 35232 ft | 447 kts | 185° |
| 2026-04-30 22:22 | 34.63907 | -97.41549 | 35699 ft | 445 kts | 186° |
| 2026-04-30 22:22 | 34.59839 | -97.40532 | 36323 ft | 456 kts | 180° |
| 2026-04-30 22:22 | 34.56771 | -97.39470 | 36778 ft | 459 kts | 178° |
| 2026-04-30 22:23 | 34.54702 | -97.38752 | 37078 ft | 456 kts | 179° |
| 2026-04-30 22:23 | 34.51638 | -97.37846 | 37534 ft | 450 kts | 182° |
| 2026-04-30 22:23 | 34.48583 | -97.37037 | 37959 ft | 450 kts | 182° |
| 2026-04-30 22:23 | 34.45568 | -97.36160 | 38402 ft | 452 kts | 180° |
| 2026-04-30 22:24 | 34.42518 | -97.35196 | 38805 ft | 452 kts | 180° |
| 2026-04-30 22:24 | 34.39471 | -97.34264 | 39137 ft | 450 kts | 181° |
| 2026-04-30 22:24 | 34.36427 | -97.33389 | 39463 ft | 449 kts | 181° |
| 2026-04-30 22:24 | 34.33383 | -97.32508 | 39788 ft | 450 kts | 180° |
| 2026-04-30 22:25 | 34.30346 | -97.31595 | 40092 ft | 450 kts | 180° |
| 2026-04-30 22:25 | 34.27299 | -97.30675 | 40401 ft | 450 kts | 180° |
| 2026-04-30 22:25 | 34.24294 | -97.29789 | 40687 ft | 449 kts | 180° |
| 2026-04-30 22:25 | 34.21220 | -97.28890 | 40983 ft | 449 kts | 180° |
| 2026-04-30 22:26 | 34.15087 | -97.27083 | 41018 ft | 464 kts | 179° |
| 2026-04-30 22:26 | 34.11887 | -97.26134 | 41014 ft | 471 kts | 179° |
| 2026-04-30 22:27 | 34.05508 | -97.24246 | 41019 ft | 475 kts | 179° |
| 2026-04-30 22:27 | 33.95917 | -97.21431 | 41019 ft | 476 kts | 179° |
| 2026-04-30 22:28 | 33.89397 | -97.19516 | 41033 ft | 488 kts | 178° |
| 2026-04-30 22:28 | 33.86079 | -97.18535 | 41040 ft | 493 kts | 178° |
| 2026-04-30 22:29 | 33.72802 | -97.14646 | 41054 ft | 489 kts | 178° |
| 2026-04-30 22:31 | 33.49548 | -97.07867 | 41031 ft | 489 kts | 178° |
| 2026-04-30 22:32 | 33.32910 | -97.03035 | 40996 ft | 493 kts | 178° |
| 2026-04-30 22:33 | 33.16275 | -96.98233 | 41004 ft | 495 kts | 178° |
| 2026-04-30 22:35 | 32.99549 | -96.93417 | 41019 ft | 492 kts | 178° |
| 2026-04-30 22:36 | 32.86261 | -96.90659 | 44628 ft | 472 kts | 195° |
| 2026-04-30 22:36 | 32.82981 | -96.90638 | 44180 ft | 469 kts | 188° |
| 2026-04-30 22:37 | 32.73511 | -96.89339 | 42827 ft | 451 kts | 190° |
| 2026-04-30 22:37 | 32.70370 | -96.89285 | 42410 ft | 451 kts | 193° |
| 2026-04-30 22:37 | 32.64045 | -96.89038 | 41599 ft | 458 kts | 188° |
| 2026-04-30 22:38 | 32.57739 | -96.88585 | 40827 ft | 455 kts | 190° |
| 2026-04-30 22:38 | 32.51380 | -96.88305 | 40104 ft | 461 kts | 189° |
| 2026-04-30 22:39 | 32.48162 | -96.88091 | 39777 ft | 465 kts | 188° |
| 2026-04-30 22:39 | 32.38466 | -96.87555 | 38882 ft | 464 kts | 188° |
| 2026-04-30 22:40 | 32.28754 | -96.87000 | 37942 ft | 468 kts | 188° |
| 2026-04-30 22:41 | 32.18931 | -96.86452 | 37053 ft | 474 kts | 188° |
| 2026-04-30 22:41 | 32.12357 | -96.86084 | 36977 ft | 473 kts | 188° |
| 2026-04-30 22:43 | 31.92552 | -96.84988 | 36961 ft | 476 kts | 188° |
| 2026-04-30 22:44 | 31.79254 | -96.84248 | 36958 ft | 479 kts | 188° |
| 2026-04-30 22:45 | 31.65947 | -96.82269 | 36949 ft | 495 kts | 174° |
| 2026-04-30 22:45 | 31.59282 | -96.80200 | 36941 ft | 496 kts | 175° |
| 2026-04-30 22:47 | 31.39237 | -96.74002 | 36915 ft | 495 kts | 175° |
| 2026-04-30 22:47 | 31.32525 | -96.71933 | 35968 ft | 498 kts | 174° |
| 2026-04-30 22:48 | 31.25837 | -96.69870 | 34644 ft | 501 kts | 174° |
| 2026-04-30 22:49 | 31.15778 | -96.66254 | 32609 ft | 509 kts | 167° |
| 2026-04-30 22:49 | 31.05801 | -96.61890 | 30594 ft | 509 kts | 168° |
| 2026-04-30 22:50 | 30.92972 | -96.56231 | 27966 ft | 459 kts | 168° |
| 2026-04-30 22:51 | 30.87043 | -96.53665 | 26763 ft | 455 kts | 168° |
| 2026-04-30 22:51 | 30.81183 | -96.51082 | 25573 ft | 445 kts | 168° |
| 2026-04-30 22:52 | 30.78296 | -96.49829 | 24975 ft | 440 kts | 168° |
| 2026-04-30 22:52 | 30.72613 | -96.47355 | 23828 ft | 432 kts | 168° |
| 2026-04-30 22:53 | 30.67040 | -96.44923 | 22660 ft | 422 kts | 168° |
| 2026-04-30 22:53 | 30.61603 | -96.42551 | 21544 ft | 414 kts | 168° |
| 2026-04-30 22:53 | 30.58950 | -96.41239 | 20996 ft | 417 kts | 162° |
| 2026-04-30 22:54 | 30.53778 | -96.38366 | 19912 ft | 406 kts | 163° |
| 2026-04-30 22:55 | 30.46261 | -96.34268 | 18318 ft | 395 kts | 162° |
| 2026-04-30 22:55 | 30.41334 | -96.31578 | 17325 ft | 389 kts | 162° |
| 2026-04-30 22:56 | 30.36447 | -96.29010 | 16268 ft | 381 kts | 162° |
| 2026-04-30 22:56 | 30.29340 | -96.25252 | 14721 ft | 371 kts | 161° |
| 2026-04-30 22:57 | 30.24678 | -96.22801 | 13712 ft | 363 kts | 160° |
| 2026-04-30 22:57 | 30.20142 | -96.20402 | 12727 ft | 354 kts | 160° |
| 2026-04-30 22:58 | 30.15685 | -96.18020 | 11852 ft | 351 kts | 159° |
| 2026-04-30 22:59 | 30.09044 | -96.14469 | 11841 ft | 351 kts | 159° |
| 2026-04-30 22:59 | 30.02414 | -96.10772 | 11888 ft | 353 kts | 158° |